Time;durP1;ratioP1;P1;durP2;ratioP2;P2;SDS_P1;SDS_P2;PMS_P1;PMS_P2;Temp;Humidity;BMP_temperature;BMP_pressure;BME280_temperature;BME280_humidity;BME280_pressure;Samples;Min_cycle;Max_cycle;Signal;HPM_P1;HPM_P2
2023/06/20 00:00:50;;;;;;;14.38;10.35;;;17.50;1.00;;;;;;4961090;28;20042;-72
2023/06/20 00:03:17;;;;;;;15.73;10.48;;;17.50;1.00;;;;;;4942421;28;20046;-72
2023/06/20 00:05:44;;;;;;;14.63;9.77;;;17.50;1.00;;;;;;4964569;28;20082;-73
2023/06/20 00:08:10;;;;;;;14.77;11.20;;;17.50;1.00;;;;;;4958123;28;20269;-74
2023/06/20 00:10:36;;;;;;;14.07;10.40;;;17.60;1.00;;;;;;4964586;28;20035;-72
2023/06/20 00:13:02;;;;;;;12.77;10.13;;;17.60;1.00;;;;;;4964939;28;20049;-73
2023/06/20 00:15:28;;;;;;;12.05;10.30;;;17.60;1.00;;;;;;4958388;28;20162;-73
2023/06/20 00:17:56;;;;;;;12.65;10.35;;;17.60;1.00;;;;;;4960145;28;20038;-73
2023/06/20 00:20:22;;;;;;;11.98;9.93;;;17.50;1.00;;;;;;4959407;28;20093;-73
2023/06/20 00:22:50;;;;;;;13.00;10.32;;;17.50;1.00;;;;;;4960559;28;20134;-72
2023/06/20 00:25:16;;;;;;;11.15;10.02;;;17.50;1.00;;;;;;4963335;28;20081;-71
2023/06/20 00:27:42;;;;;;;10.63;9.35;;;17.60;1.00;;;;;;4961729;28;20061;-73
2023/06/20 00:30:09;;;;;;;12.18;9.95;;;17.60;1.00;;;;;;4958774;28;20050;-72
2023/06/20 00:32:35;;;;;;;17.35;11.13;;;17.60;1.00;;;;;;4968341;28;20121;-71
2023/06/20 00:35:01;;;;;;;11.65;10.45;;;17.70;1.00;;;;;;4963204;28;20185;-71
2023/06/20 00:37:27;;;;;;;16.02;11.40;;;17.70;27.60;;;;;;4968025;28;20147;-73
2023/06/20 00:39:53;;;;;;;13.20;11.50;;;17.90;44.20;;;;;;4963165;28;20050;-72
2023/06/20 00:42:23;;;;;;;12.75;9.35;;;17.90;12.80;;;;;;4962185;28;20094;-73
2023/06/20 00:44:50;;;;;;;11.25;10.15;;;17.90;1.00;;;;;;4976602;28;20194;-72
2023/06/20 00:47:19;;;;;;;13.63;10.18;;;17.90;1.00;;;;;;4966998;28;20762;-73
2023/06/20 00:49:49;;;;;;;13.48;9.43;;;17.80;1.00;;;;;;4965216;28;20050;-72
2023/06/20 00:52:20;;;;;;;10.70;8.05;;;17.80;99.90;;;;;;4961320;28;20054;-73
2023/06/20 00:54:47;;;;;;;12.55;8.93;;;17.80;99.90;;;;;;4960405;28;20085;-73
2023/06/20 00:57:20;;;;;;;9.90;8.10;;;17.80;99.90;;;;;;4957618;28;20092;-72
2023/06/20 00:59:46;;;;;;;10.20;8.13;;;17.90;99.90;;;;;;4958145;28;20050;-74
2023/06/20 01:02:14;;;;;;;10.73;6.93;;;17.80;99.90;;;;;;4966351;28;20126;-72
2023/06/20 01:04:42;;;;;;;9.27;7.28;;;17.80;99.90;;;;;;4970076;28;20042;-72
2023/06/20 01:07:30;;;;;;;8.40;6.85;;;17.90;99.90;;;;;;4976301;28;21492;-73
2023/06/20 01:10:05;;;;;;;8.70;6.70;;;17.90;99.90;;;;;;4959536;28;20046;-73
2023/06/20 01:13:03;;;;;;;8.93;6.85;;;17.90;99.90;;;;;;4950449;28;20064;-72
2023/06/20 01:15:35;;;;;;;11.23;6.32;;;17.90;99.90;;;;;;4957231;28;20078;-72
2023/06/20 01:18:09;;;;;;;8.52;6.35;;;18.00;99.90;;;;;;4956986;28;20057;-72
2023/06/20 01:20:56;;;;;;;7.05;6.18;;;18.10;99.90;;;;;;4962487;28;20039;-72
2023/06/20 01:23:52;;;;;;;10.25;6.72;;;18.10;99.90;;;;;;4962120;28;20624;-72
2023/06/20 01:26:52;;;;;;;8.25;6.60;;;18.20;99.90;;;;;;4959303;28;20053;-72
2023/06/20 01:29:27;;;;;;;8.02;6.10;;;18.10;99.90;;;;;;4947616;28;20097;-72
2023/06/20 01:32:00;;;;;;;7.88;5.47;;;18.20;99.90;;;;;;4961788;28;20050;-72
2023/06/20 01:34:29;;;;;;;12.38;7.18;;;18.20;99.90;;;;;;4958702;28;20051;-72
2023/06/20 01:36:58;;;;;;;8.32;6.55;;;18.20;99.90;;;;;;4961601;28;20694;-73
2023/06/20 01:39:47;;;;;;;10.70;8.05;;;18.30;99.90;;;;;;4958795;28;20529;-70
2023/06/20 01:42:15;;;;;;;11.10;7.97;;;18.30;99.90;;;;;;4961024;28;20077;-72
2023/06/20 01:44:43;;;;;;;8.85;7.30;;;18.30;99.90;;;;;;4959907;28;20056;-72
2023/06/20 01:47:11;;;;;;;9.45;8.07;;;18.30;99.90;;;;;;4957627;28;20106;-72
2023/06/20 01:49:38;;;;;;;8.95;7.15;;;18.30;99.90;;;;;;4960749;28;20038;-73
2023/06/20 01:52:05;;;;;;;8.60;7.05;;;18.30;99.90;;;;;;4960638;28;20046;-72
2023/06/20 01:54:33;;;;;;;8.57;6.60;;;18.30;99.90;;;;;;4960285;28;20450;-72
2023/06/20 01:57:01;;;;;;;8.43;7.53;;;18.20;96.00;;;;;;4964857;28;20035;-72
2023/06/20 01:59:31;;;;;;;8.90;8.00;;;18.20;99.90;;;;;;4959605;28;20046;-73
2023/06/20 02:01:59;;;;;;;9.10;7.10;;;18.20;99.90;;;;;;4959128;28;21174;-71
2023/06/20 02:04:26;;;;;;;10.48;6.82;;;18.20;99.90;;;;;;4962210;28;20055;-71
2023/06/20 02:06:53;;;;;;;7.65;6.80;;;18.20;99.90;;;;;;4962893;28;21376;-72
2023/06/20 02:09:20;;;;;;;10.07;7.25;;;18.10;98.40;;;;;;4962583;28;20047;-72
2023/06/20 02:11:46;;;;;;;12.35;10.25;;;18.20;99.90;;;;;;4946706;28;20101;-73
2023/06/20 02:14:13;;;;;;;12.65;10.98;;;18.20;99.90;;;;;;4965900;28;20172;-72
2023/06/20 02:16:40;;;;;;;14.52;13.02;;;18.10;99.90;;;;;;4945261;28;20670;-73
2023/06/20 02:19:07;;;;;;;15.10;13.40;;;18.10;99.90;;;;;;4965993;28;20046;-73
2023/06/20 02:21:37;;;;;;;17.75;15.25;;;18.10;99.90;;;;;;4964511;28;20162;-71
2023/06/20 02:24:05;;;;;;;17.27;14.02;;;18.10;99.90;;;;;;4963929;28;20038;-71
2023/06/20 02:26:34;;;;;;;16.33;13.77;;;18.10;99.90;;;;;;4964544;28;20053;-73
2023/06/20 02:29:05;;;;;;;16.42;12.55;;;18.10;99.90;;;;;;4958127;28;20034;-71
2023/06/20 02:31:35;;;;;;;15.32;13.45;;;18.10;99.90;;;;;;4964544;28;20046;-72
2023/06/20 02:34:04;;;;;;;15.98;14.00;;;18.00;99.90;;;;;;4971031;28;20118;-72
2023/06/20 02:36:31;;;;;;;16.80;13.82;;;18.00;99.90;;;;;;4965947;28;20046;-72
2023/06/20 02:38:58;;;;;;;20.38;17.05;;;18.00;99.90;;;;;;4968107;28;20050;-72
2023/06/20 02:41:24;;;;;;;20.65;18.48;;;17.90;99.90;;;;;;4962252;28;20034;-72
2023/06/20 02:43:50;;;;;;;22.42;20.10;;;18.00;99.90;;;;;;4955881;28;20053;-71
2023/06/20 02:46:26;;;;;;;24.50;21.70;;;18.00;1.00;;;;;;4977478;28;20073;-72
2023/06/20 02:49:08;;;;;;;28.45;22.73;;;17.90;1.00;;;;;;4963891;28;20149;-71
2023/06/20 02:51:56;;;;;;;25.73;22.95;;;17.90;74.60;;;;;;4961852;28;20131;-72
2023/06/20 02:54:35;;;;;;;24.40;21.52;;;17.90;29.90;;;;;;4963123;28;20085;-73
2023/06/20 02:57:05;;;;;;;25.77;21.00;;;17.90;18.50;;;;;;4961862;28;20059;-72
2023/06/20 02:59:34;;;;;;;22.70;18.52;;;17.90;1.00;;;;;;4962957;28;21049;-71
2023/06/20 03:02:06;;;;;;;19.13;16.08;;;17.80;1.00;;;;;;4960594;28;20549;-72
2023/06/20 03:04:33;;;;;;;14.52;12.68;;;17.90;1.00;;;;;;4962563;28;20042;-73
2023/06/20 03:07:01;;;;;;;17.58;14.60;;;17.80;1.00;;;;;;4944290;28;20631;-72
2023/06/20 03:09:29;;;;;;;16.13;14.35;;;17.80;1.00;;;;;;4961386;28;20039;-72
2023/06/20 03:11:56;;;;;;;16.95;15.13;;;17.70;1.00;;;;;;4962724;28;20054;-72
2023/06/20 03:14:22;;;;;;;16.63;14.63;;;17.80;1.00;;;;;;4941657;28;20047;-71
2023/06/20 03:16:48;;;;;;;18.15;16.25;;;17.80;99.90;;;;;;4973659;28;20042;-74
2023/06/20 03:19:14;;;;;;;18.92;17.02;;;17.80;1.00;;;;;;4968473;28;21282;-72
2023/06/20 03:21:40;;;;;;;19.77;17.63;;;17.80;1.00;;;;;;4946272;28;20052;-72
2023/06/20 03:24:06;;;;;;;19.48;17.40;;;17.90;1.00;;;;;;4962598;28;20091;-73
2023/06/20 03:26:42;;;;;;;17.88;16.05;;;17.90;1.00;;;;;;4962119;28;20129;-72
2023/06/20 03:29:08;;;;;;;18.52;16.45;;;17.80;1.00;;;;;;4959860;28;20364;-72
2023/06/20 03:31:34;;;;;;;17.10;15.30;;;17.90;99.90;;;;;;4968982;28;20576;-73
2023/06/20 03:33:59;;;;;;;12.95;11.60;;;17.80;99.90;;;;;;4965140;28;20034;-72
2023/06/20 03:36:25;;;;;;;14.45;12.90;;;17.80;99.90;;;;;;4968464;28;20043;-73
2023/06/20 03:38:51;;;;;;;13.90;12.38;;;17.90;99.90;;;;;;4944789;28;20042;-72
2023/06/20 03:41:17;;;;;;;14.63;12.93;;;17.90;99.90;;;;;;4962613;28;20045;-73
2023/06/20 03:43:42;;;;;;;15.10;13.27;;;17.90;99.90;;;;;;4951985;28;20085;-72
2023/06/20 03:46:08;;;;;;;14.35;12.85;;;17.90;99.90;;;;;;4962179;28;20542;-72
2023/06/20 03:48:34;;;;;;;15.73;12.02;;;17.90;99.90;;;;;;4952039;28;20066;-72
2023/06/20 03:50:59;;;;;;;13.38;11.80;;;17.90;99.90;;;;;;4963229;28;20081;-72
2023/06/20 03:53:25;;;;;;;14.32;12.88;;;17.90;99.90;;;;;;4963706;28;20532;-73
2023/06/20 03:55:51;;;;;;;15.02;13.27;;;18.00;99.90;;;;;;4958222;28;20278;-73
2023/06/20 03:58:16;;;;;;;16.17;14.48;;;18.00;99.90;;;;;;4962054;28;21123;-73
2023/06/20 04:00:42;;;;;;;16.05;14.35;;;18.00;99.90;;;;;;4963155;28;20085;-72
2023/06/20 04:03:08;;;;;;;14.50;12.80;;;18.00;99.90;;;;;;4969297;28;20050;-72
2023/06/20 04:05:34;;;;;;;14.20;12.10;;;18.00;99.90;;;;;;4961157;28;20047;-72
2023/06/20 04:08:01;;;;;;;14.63;11.77;;;18.00;99.90;;;;;;4964928;28;20771;-71
2023/06/20 04:10:27;;;;;;;15.40;13.75;;;18.00;99.90;;;;;;4968959;28;20644;-72
2023/06/20 04:12:54;;;;;;;14.60;12.52;;;18.10;99.90;;;;;;4963311;28;20970;-72
2023/06/20 04:15:19;;;;;;;16.67;14.88;;;18.10;99.90;;;;;;4969830;28;20050;-72
2023/06/20 04:17:45;;;;;;;15.73;12.93;;;18.10;99.90;;;;;;4961626;28;20046;-72
2023/06/20 04:20:14;;;;;;;18.10;14.98;;;18.20;99.90;;;;;;4962609;28;20473;-73
2023/06/20 04:22:44;;;;;;;17.42;15.00;;;18.20;99.90;;;;;;4959252;28;20035;-73
2023/06/20 04:25:10;;;;;;;16.35;14.10;;;18.10;99.90;;;;;;4941221;28;20047;-72
2023/06/20 04:27:36;;;;;;;14.90;13.27;;;18.20;99.90;;;;;;4958514;28;20073;-73
2023/06/20 04:30:03;;;;;;;16.23;14.13;;;18.20;99.90;;;;;;4946510;28;20074;-72
2023/06/20 04:32:29;;;;;;;13.88;12.45;;;18.20;99.90;;;;;;4958469;28;20114;-73
2023/06/20 04:34:55;;;;;;;15.07;13.13;;;18.20;99.90;;;;;;4963872;28;20480;-73
2023/06/20 04:37:21;;;;;;;14.20;11.73;;;18.20;99.90;;;;;;4952280;28;20133;-73
2023/06/20 04:39:46;;;;;;;13.05;11.48;;;18.20;99.90;;;;;;4966501;28;20038;-74
2023/06/20 04:42:12;;;;;;;15.38;12.80;;;18.20;99.90;;;;;;4971684;28;20062;-72
2023/06/20 04:44:38;;;;;;;13.75;12.35;;;18.20;99.90;;;;;;4967570;28;20062;-72
2023/06/20 04:47:03;;;;;;;14.60;13.10;;;18.20;99.90;;;;;;4968705;28;20078;-72
2023/06/20 04:49:29;;;;;;;15.43;13.82;;;18.30;99.90;;;;;;4965489;28;20061;-72
2023/06/20 04:51:57;;;;;;;17.98;14.77;;;18.30;99.90;;;;;;4961107;28;20704;-72
2023/06/20 04:54:24;;;;;;;16.63;14.60;;;18.30;99.90;;;;;;4960694;28;20043;-73
2023/06/20 04:56:50;;;;;;;13.40;12.00;;;18.40;99.90;;;;;;4963672;28;20509;-73
2023/06/20 04:59:16;;;;;;;14.35;12.20;;;18.40;99.90;;;;;;4975152;28;20056;-72
2023/06/20 05:01:42;;;;;;;13.35;11.43;;;18.50;99.90;;;;;;4969790;28;20111;-72
2023/06/20 05:04:08;;;;;;;12.05;10.85;;;18.50;59.00;;;;;;4968499;28;20133;-73
2023/06/20 05:06:36;;;;;;;11.43;10.02;;;18.60;1.00;;;;;;4937333;28;20038;-73
2023/06/20 05:09:02;;;;;;;11.80;10.50;;;18.60;1.00;;;;;;4963319;28;20043;-72
2023/06/20 05:11:28;;;;;;;12.25;9.85;;;18.60;1.00;;;;;;4960858;28;20089;-71
2023/06/20 05:13:53;;;;;;;11.02;9.98;;;18.70;1.00;;;;;;4955107;28;20059;-72
2023/06/20 05:16:19;;;;;;;11.88;10.52;;;18.70;1.00;;;;;;4962648;28;20435;-72
2023/06/20 05:18:46;;;;;;;11.45;9.93;;;18.80;1.00;;;;;;4964950;28;20077;-72
2023/06/20 05:21:12;;;;;;;11.70;10.50;;;18.80;1.00;;;;;;4957437;28;20092;-72
2023/06/20 05:23:38;;;;;;;12.15;11.05;;;18.80;1.00;;;;;;4963413;28;20334;-71
2023/06/20 05:26:03;;;;;;;12.13;10.93;;;18.90;1.00;;;;;;4959185;28;20103;-71
2023/06/20 05:28:29;;;;;;;11.45;10.35;;;18.90;1.00;;;;;;4965748;28;20042;-71
2023/06/20 05:30:55;;;;;;;13.88;11.70;;;18.90;1.00;;;;;;4959218;28;20050;-70
2023/06/20 05:33:20;;;;;;;10.82;9.68;;;18.90;1.00;;;;;;4960191;28;20089;-70
2023/06/20 05:35:46;;;;;;;12.20;11.10;;;19.00;1.00;;;;;;4960339;28;20666;-70
2023/06/20 05:38:13;;;;;;;12.05;10.85;;;18.90;1.00;;;;;;4958654;28;20072;-70
2023/06/20 05:40:39;;;;;;;12.45;11.15;;;19.00;1.00;;;;;;4960021;28;20049;-72
2023/06/20 05:43:05;;;;;;;12.48;11.15;;;19.10;1.00;;;;;;4954637;28;20053;-71
2023/06/20 05:45:30;;;;;;;12.30;10.98;;;19.10;1.00;;;;;;4959513;28;20050;-72
2023/06/20 05:47:58;;;;;;;13.57;11.15;;;19.10;1.00;;;;;;4962425;28;20125;-73
2023/06/20 05:50:25;;;;;;;11.40;10.20;;;19.10;1.00;;;;;;4956432;28;20895;-71
2023/06/20 05:52:51;;;;;;;15.30;12.52;;;19.10;99.90;;;;;;4951848;28;20038;-74
2023/06/20 05:55:17;;;;;;;14.55;13.10;;;19.10;1.00;;;;;;4957235;28;20166;-71
2023/06/20 05:57:43;;;;;;;13.60;12.20;;;19.10;1.00;;;;;;4958573;28;20042;-72
2023/06/20 06:00:12;;;;;;;14.30;12.82;;;19.10;1.00;;;;;;4957635;28;20069;-72
2023/06/20 06:02:45;;;;;;;13.23;11.85;;;19.10;99.90;;;;;;4977385;28;20046;-72
2023/06/20 06:05:11;;;;;;;15.85;12.93;;;19.10;99.90;;;;;;4957454;28;20617;-73
2023/06/20 06:07:38;;;;;;;12.32;11.15;;;19.10;1.00;;;;;;4960007;28;20517;-73
2023/06/20 06:10:05;;;;;;;13.93;12.52;;;19.10;99.90;;;;;;4960077;28;20057;-73
2023/06/20 06:12:31;;;;;;;13.32;11.93;;;19.10;99.90;;;;;;4955381;28;20511;-73
2023/06/20 06:14:56;;;;;;;11.68;10.57;;;19.10;99.90;;;;;;4957596;28;20058;-73
2023/06/20 06:17:22;;;;;;;12.73;11.30;;;19.20;99.90;;;;;;4958387;28;20042;-74
2023/06/20 06:19:48;;;;;;;13.05;11.70;;;19.30;99.90;;;;;;4957436;28;20827;-73
2023/06/20 06:22:14;;;;;;;13.95;12.40;;;19.30;99.90;;;;;;4964583;28;20050;-74
2023/06/20 06:24:40;;;;;;;12.07;10.75;;;19.30;99.90;;;;;;4958690;28;20046;-73
2023/06/20 06:27:06;;;;;;;11.02;9.13;;;19.50;99.90;;;;;;4958276;28;20365;-71
2023/06/20 06:29:31;;;;;;;12.60;11.30;;;19.50;99.90;;;;;;4961668;28;20669;-73
2023/06/20 06:32:00;;;;;;;13.13;11.90;;;19.50;99.90;;;;;;4955732;28;20053;-73
2023/06/20 06:34:26;;;;;;;13.30;11.43;;;19.60;99.90;;;;;;4966126;28;20050;-73
2023/06/20 06:36:52;;;;;;;12.77;11.57;;;19.70;99.90;;;;;;4945088;28;20047;-73
2023/06/20 06:39:18;;;;;;;12.70;11.50;;;19.80;99.90;;;;;;4959638;28;20121;-75
2023/06/20 06:41:46;;;;;;;13.13;11.68;;;19.90;99.90;;;;;;4958648;28;20041;-72
2023/06/20 06:44:12;;;;;;;13.40;12.00;;;20.10;99.90;;;;;;4964329;28;20047;-73
2023/06/20 06:46:38;;;;;;;12.55;11.27;;;20.20;99.90;;;;;;4960488;28;20086;-72
2023/06/20 06:49:04;;;;;;;12.68;11.38;;;20.40;99.90;;;;;;4959754;28;20133;-73
2023/06/20 06:51:30;;;;;;;14.05;12.65;;;20.50;99.90;;;;;;4957966;28;20082;-71
2023/06/20 06:53:55;;;;;;;12.82;11.50;;;20.60;99.90;;;;;;4957850;28;20786;-72
2023/06/20 06:56:21;;;;;;;14.05;11.30;;;20.70;99.90;;;;;;4949646;28;20109;-72
2023/06/20 06:58:47;;;;;;;12.75;11.45;;;20.90;99.90;;;;;;4950028;28;20085;-72
2023/06/20 07:01:12;;;;;;;13.43;11.18;;;21.00;99.90;;;;;;4964792;28;20039;-72
2023/06/20 07:03:38;;;;;;;12.35;11.15;;;21.00;99.90;;;;;;4963678;28;20826;-72
2023/06/20 07:06:04;;;;;;;11.38;10.23;;;21.10;99.90;;;;;;4965999;28;20042;-72
2023/06/20 07:08:29;;;;;;;13.45;12.13;;;21.10;99.90;;;;;;4965002;28;20692;-73
2023/06/20 07:10:55;;;;;;;12.98;11.63;;;21.10;99.90;;;;;;4957922;28;20122;-73
2023/06/20 07:13:23;;;;;;;12.82;11.50;;;21.10;99.90;;;;;;4967997;28;20054;-72
2023/06/20 07:15:49;;;;;;;13.18;11.93;;;21.10;99.90;;;;;;4961994;28;20050;-73
2023/06/20 07:18:14;;;;;;;13.35;11.45;;;21.10;99.90;;;;;;4952862;28;20440;-73
2023/06/20 07:20:40;;;;;;;13.55;12.25;;;21.30;99.90;;;;;;4951226;28;20112;-73
2023/06/20 07:23:06;;;;;;;13.25;11.85;;;21.40;99.90;;;;;;4953019;28;20057;-73
2023/06/20 07:25:32;;;;;;;12.55;10.57;;;21.50;99.90;;;;;;4962473;28;20039;-73
2023/06/20 07:27:58;;;;;;;12.38;11.18;;;21.60;99.90;;;;;;4951224;28;20601;-71
2023/06/20 07:30:24;;;;;;;13.45;10.93;;;21.70;99.90;;;;;;4959420;28;20494;-70
2023/06/20 07:32:50;;;;;;;11.43;9.88;;;21.80;99.90;;;;;;4971630;28;20050;-70
2023/06/20 07:35:16;;;;;;;11.40;10.30;;;21.90;99.90;;;;;;4960537;28;20399;-72
2023/06/20 07:37:41;;;;;;;11.38;10.23;;;22.10;99.90;;;;;;4965755;28;20453;-73
2023/06/20 07:40:07;;;;;;;12.25;10.23;;;22.40;99.90;;;;;;4967643;28;20745;-73
2023/06/20 07:42:34;;;;;;;11.48;9.68;;;22.80;99.90;;;;;;4963493;28;20038;-72
2023/06/20 07:45:00;;;;;;;9.75;8.75;;;23.10;95.20;;;;;;4964545;28;20409;-71
2023/06/20 07:47:25;;;;;;;10.48;8.75;;;23.40;96.60;;;;;;4967891;28;20473;-73
2023/06/20 07:49:51;;;;;;;9.93;8.15;;;23.60;1.00;;;;;;4965129;28;20061;-73
2023/06/20 07:52:17;;;;;;;9.82;8.13;;;23.60;1.00;;;;;;4961922;28;20053;-72
2023/06/20 07:54:43;;;;;;;9.57;8.20;;;23.60;1.00;;;;;;4966078;28;20121;-72
2023/06/20 07:57:08;;;;;;;9.07;8.18;;;23.70;1.00;;;;;;4965335;28;20050;-72
2023/06/20 07:59:34;;;;;;;8.07;6.43;;;23.90;1.00;;;;;;4967405;28;20189;-73
2023/06/20 08:02:00;;;;;;;8.95;7.95;;;24.00;1.00;;;;;;4964268;28;20046;-73
2023/06/20 08:04:25;;;;;;;10.88;8.95;;;23.70;1.00;;;;;;4944893;28;20038;-72
2023/06/20 08:06:51;;;;;;;10.25;8.70;;;23.50;1.00;;;;;;4947999;28;20136;-72
2023/06/20 08:09:17;;;;;;;11.85;8.85;;;23.50;1.00;;;;;;4961137;28;20484;-72
2023/06/20 08:11:43;;;;;;;10.55;9.50;;;23.20;1.00;;;;;;4965294;28;20045;-73
2023/06/20 08:14:08;;;;;;;8.88;8.00;;;23.00;17.80;;;;;;4960748;28;20511;-71
2023/06/20 08:16:34;;;;;;;11.13;10.02;;;23.10;1.00;;;;;;4967310;28;20514;-72
2023/06/20 08:19:00;;;;;;;11.10;10.00;;;22.80;1.00;;;;;;4960923;28;20414;-73
2023/06/20 08:21:25;;;;;;;10.30;9.30;;;22.80;15.90;;;;;;4965338;28;20508;-73
2023/06/20 08:23:51;;;;;;;11.82;10.40;;;22.70;11.90;;;;;;4970108;28;20051;-72
2023/06/20 08:26:17;;;;;;;10.90;9.73;;;22.50;52.30;;;;;;4958961;28;20054;-74
2023/06/20 08:28:43;;;;;;;9.00;8.10;;;22.30;69.80;;;;;;4960522;28;20042;-72
2023/06/20 08:31:08;;;;;;;11.13;10.00;;;22.20;48.20;;;;;;4943211;28;20042;-73
2023/06/20 08:33:34;;;;;;;10.52;9.50;;;22.10;75.60;;;;;;4957674;28;20058;-72
2023/06/20 08:36:01;;;;;;;11.82;8.73;;;22.10;93.80;;;;;;4960237;28;20046;-74
2023/06/20 08:38:27;;;;;;;11.55;9.85;;;22.10;80.00;;;;;;4944667;28;20357;-73
2023/06/20 08:40:53;;;;;;;12.00;10.77;;;22.10;93.90;;;;;;4966429;28;20038;-71
2023/06/20 08:43:19;;;;;;;13.20;11.90;;;22.10;99.90;;;;;;4971379;28;20039;-70
2023/06/20 08:45:45;;;;;;;12.65;11.43;;;22.10;99.90;;;;;;4965964;28;20129;-71
2023/06/20 08:48:11;;;;;;;12.65;11.32;;;22.20;99.90;;;;;;4963764;28;20062;-72
2023/06/20 08:50:37;;;;;;;12.05;10.55;;;22.40;99.90;;;;;;4969107;28;20044;-73
2023/06/20 08:53:05;;;;;;;12.48;11.07;;;22.60;99.90;;;;;;4962808;28;20053;-72
2023/06/20 08:55:32;;;;;;;12.63;11.32;;;22.60;87.30;;;;;;4964761;28;20092;-72
2023/06/20 08:57:58;;;;;;;11.70;10.60;;;22.70;99.90;;;;;;4961823;28;20077;-72
2023/06/20 09:00:24;;;;;;;12.82;11.30;;;22.70;99.90;;;;;;4948218;28;20083;-73
2023/06/20 09:02:51;;;;;;;12.18;11.07;;;22.70;99.90;;;;;;4967426;28;20042;-72
2023/06/20 09:05:17;;;;;;;11.73;10.30;;;22.90;99.90;;;;;;4972879;28;20053;-73
2023/06/20 09:07:43;;;;;;;11.13;10.18;;;23.00;99.90;;;;;;4969414;28;20120;-72
2023/06/20 09:10:14;;;;;;;12.50;11.25;;;23.10;90.70;;;;;;4954646;28;20566;-72
2023/06/20 09:12:58;;;;;;;10.75;9.75;;;23.00;96.50;;;;;;4953681;28;20050;-71
2023/06/20 09:15:28;;;;;;;12.90;10.60;;;22.90;99.90;;;;;;4959835;28;20462;-74
2023/06/20 09:17:56;;;;;;;11.45;10.23;;;22.80;99.90;;;;;;4949457;28;20503;-73
2023/06/20 09:20:27;;;;;;;12.05;10.75;;;22.90;99.90;;;;;;4958125;28;20043;-73
2023/06/20 09:22:53;;;;;;;11.38;10.27;;;22.80;97.30;;;;;;4963177;28;20050;-72
2023/06/20 09:25:24;;;;;;;13.15;11.82;;;22.80;95.70;;;;;;4951948;28;20058;-73
2023/06/20 09:27:51;;;;;;;13.15;11.63;;;23.00;95.30;;;;;;4957802;28;20101;-75
2023/06/20 09:30:17;;;;;;;11.85;10.68;;;23.30;72.10;;;;;;4956664;28;20050;-73
2023/06/20 09:32:43;;;;;;;13.80;11.18;;;23.60;50.20;;;;;;4963115;28;20109;-72
2023/06/20 09:35:11;;;;;;;13.48;12.27;;;23.70;73.30;;;;;;4959123;28;20039;-72
2023/06/20 09:37:42;;;;;;;13.52;12.18;;;23.80;38.80;;;;;;4958088;28;20598;-72
2023/06/20 09:40:13;;;;;;;13.90;12.50;;;24.00;28.60;;;;;;4959229;28;20477;-73
2023/06/20 09:42:40;;;;;;;14.00;12.63;;;24.00;1.00;;;;;;4967488;28;20050;-72
2023/06/20 09:45:07;;;;;;;14.05;12.75;;;24.00;1.00;;;;;;4956301;28;20120;-73
2023/06/20 09:47:38;;;;;;;15.20;13.68;;;24.10;1.00;;;;;;4957204;28;20061;-73
2023/06/20 09:50:09;;;;;;;14.35;12.95;;;24.20;2.00;;;;;;4954572;28;20084;-73
2023/06/20 09:52:51;;;;;;;12.93;11.73;;;24.50;1.00;;;;;;4963947;28;20038;-71
2023/06/20 09:55:20;;;;;;;12.50;11.30;;;24.80;1.00;;;;;;4957567;28;20049;-74
2023/06/20 09:57:51;;;;;;;14.52;13.23;;;25.00;1.00;;;;;;4957763;28;20403;-73
2023/06/20 10:00:17;;;;;;;13.45;12.15;;;25.40;1.00;;;;;;4958650;28;20057;-72
2023/06/20 10:02:45;;;;;;;13.02;11.88;;;25.80;1.00;;;;;;4958111;28;20237;-73
2023/06/20 10:05:15;;;;;;;13.65;12.27;;;26.30;99.90;;;;;;4955239;28;20317;-73
2023/06/20 10:07:42;;;;;;;12.75;11.65;;;26.30;99.90;;;;;;4955711;28;20050;-72
2023/06/20 10:10:13;;;;;;;13.15;12.05;;;26.40;99.90;;;;;;4956102;28;20314;-73
2023/06/20 10:12:40;;;;;;;12.20;11.02;;;26.20;99.90;;;;;;4954872;28;20661;-72
2023/06/20 10:15:08;;;;;;;12.77;11.63;;;26.30;99.90;;;;;;4956563;28;20075;-73
2023/06/20 10:17:39;;;;;;;13.40;12.05;;;26.00;99.90;;;;;;4953305;28;20042;-73
2023/06/20 10:20:08;;;;;;;13.40;12.20;;;25.90;99.90;;;;;;4958195;28;20046;-76
2023/06/20 10:22:38;;;;;;;11.90;10.90;;;25.90;99.90;;;;;;4961416;28;20641;-72
2023/06/20 10:25:14;;;;;;;13.13;12.02;;;25.80;99.90;;;;;;4966447;28;20047;-75
2023/06/20 10:27:41;;;;;;;13.75;12.32;;;25.80;99.90;;;;;;4956665;28;20375;-73
2023/06/20 10:30:10;;;;;;;12.57;11.48;;;25.80;99.90;;;;;;4960176;28;20054;-73
2023/06/20 10:32:57;;;;;;;13.15;11.90;;;26.00;99.90;;;;;;4961698;28;20054;-74
2023/06/20 10:35:24;;;;;;;14.88;12.73;;;26.10;99.90;;;;;;4955533;28;20429;-71
2023/06/20 10:37:50;;;;;;;14.00;12.70;;;26.10;99.90;;;;;;4967097;28;20685;-72
2023/06/20 10:40:31;;;;;;;13.75;12.45;;;26.00;99.90;;;;;;4969781;28;20061;-73
2023/06/20 10:42:57;;;;;;;13.77;12.48;;;25.80;99.90;;;;;;4963287;28;20045;-71
2023/06/20 10:45:29;;;;;;;14.05;12.70;;;25.60;99.90;;;;;;4971528;28;20573;-73
2023/06/20 10:47:56;;;;;;;13.27;12.05;;;25.70;99.90;;;;;;4972583;28;20583;-73
2023/06/20 10:50:23;;;;;;;13.57;12.25;;;25.60;99.90;;;;;;4976385;28;20054;-74
2023/06/20 10:52:49;;;;;;;13.85;12.55;;;25.50;99.90;;;;;;4970773;28;20445;-72
2023/06/20 10:55:15;;;;;;;13.93;12.52;;;25.40;99.90;;;;;;4972028;28;20034;-71
2023/06/20 10:57:49;;;;;;;14.00;12.70;;;25.40;1.00;;;;;;4952027;28;20054;-73
2023/06/20 11:00:22;;;;;;;13.82;12.63;;;25.40;1.00;;;;;;4968559;28;20545;-72
2023/06/20 11:02:49;;;;;;;14.70;13.40;;;25.50;1.00;;;;;;4969390;28;20327;-75
2023/06/20 11:05:16;;;;;;;16.83;13.07;;;25.60;99.90;;;;;;4966641;28;20058;-72
2023/06/20 11:08:00;;;;;;;14.05;12.85;;;25.70;99.90;;;;;;4970869;28;20043;-73
2023/06/20 11:10:30;;;;;;;13.18;12.07;;;25.90;99.90;;;;;;4975258;28;20128;-73
2023/06/20 11:12:57;;;;;;;13.73;12.38;;;26.00;99.90;;;;;;4968725;28;20047;-73
2023/06/20 11:15:30;;;;;;;13.15;12.05;;;26.20;99.90;;;;;;4977933;28;20050;-71
2023/06/20 11:17:59;;;;;;;12.68;11.38;;;26.30;99.90;;;;;;4974216;28;20522;-73
2023/06/20 11:20:26;;;;;;;13.50;11.80;;;26.40;99.90;;;;;;4982426;28;20050;-73
2023/06/20 11:22:53;;;;;;;13.80;11.88;;;26.60;99.90;;;;;;4979217;28;20072;-74
2023/06/20 11:25:26;;;;;;;12.52;11.40;;;26.90;99.90;;;;;;4970659;28;20051;-73
2023/06/20 11:27:52;;;;;;;11.00;10.00;;;27.30;99.90;;;;;;4971427;28;20059;-72
2023/06/20 11:30:32;;;;;;;12.55;11.55;;;27.60;99.90;;;;;;4976509;28;20201;-71
2023/06/20 11:33:12;;;;;;;11.50;10.50;;;27.60;99.90;;;;;;4974385;28;20037;-73
2023/06/20 11:35:43;;;;;;;11.95;10.75;;;27.60;99.90;;;;;;4967074;28;20046;-72
2023/06/20 11:38:20;;;;;;;11.77;10.68;;;27.50;99.90;;;;;;4963951;28;20491;-72
2023/06/20 11:40:50;;;;;;;11.20;10.30;;;27.50;99.90;;;;;;4966677;28;20081;-73
2023/06/20 11:43:20;;;;;;;11.40;10.50;;;27.50;99.90;;;;;;4967987;28;20110;-73
2023/06/20 11:45:46;;;;;;;11.27;10.18;;;27.70;99.90;;;;;;4965086;28;20054;-72
2023/06/20 11:48:14;;;;;;;10.85;9.90;;;27.80;99.90;;;;;;4966099;28;20342;-71
2023/06/20 11:50:42;;;;;;;11.35;10.25;;;27.80;99.90;;;;;;4964325;28;20098;-74
2023/06/20 11:53:19;;;;;;;11.20;10.20;;;27.90;99.90;;;;;;4962672;28;20047;-73
2023/06/20 11:55:46;;;;;;;11.25;10.23;;;28.00;99.90;;;;;;4963654;28;20043;-73
2023/06/20 11:58:12;;;;;;;10.88;9.80;;;27.90;99.90;;;;;;4965457;28;20039;-73
2023/06/20 12:00:38;;;;;;;10.70;9.80;;;28.10;99.90;;;;;;4955021;28;20039;-73
2023/06/20 12:03:11;;;;;;;10.73;9.63;;;28.30;99.90;;;;;;4971633;28;20505;-74
2023/06/20 12:05:37;;;;;;;9.90;9.10;;;28.40;99.90;;;;;;4965406;28;20115;-73
2023/06/20 12:08:03;;;;;;;10.07;9.27;;;28.50;99.90;;;;;;4965079;28;20046;-73
2023/06/20 12:10:29;;;;;;;9.40;8.63;;;28.40;99.90;;;;;;4949892;28;20049;-76
2023/06/20 12:12:55;;;;;;;9.00;8.20;;;28.30;99.90;;;;;;4966374;28;20046;-71
2023/06/20 12:15:21;;;;;;;9.35;8.48;;;28.20;99.90;;;;;;4955866;28;20133;-73
2023/06/20 12:17:47;;;;;;;9.90;9.05;;;28.30;99.90;;;;;;4952294;28;20054;-73
2023/06/20 12:20:13;;;;;;;9.93;9.13;;;28.40;99.90;;;;;;4966340;28;20065;-73
2023/06/20 12:22:39;;;;;;;9.60;8.65;;;28.40;99.90;;;;;;4970285;28;20094;-73
2023/06/20 12:25:05;;;;;;;9.63;8.57;;;28.30;99.90;;;;;;4962600;28;20053;-73
2023/06/20 12:27:30;;;;;;;9.10;8.30;;;28.40;99.90;;;;;;4946039;28;20050;-73
2023/06/20 12:29:56;;;;;;;9.77;8.82;;;28.30;99.90;;;;;;4965954;28;20526;-73
2023/06/20 12:32:22;;;;;;;9.73;8.85;;;28.40;99.90;;;;;;4964975;28;20313;-73
2023/06/20 12:34:47;;;;;;;9.85;9.15;;;28.30;99.90;;;;;;4969037;28;20078;-73
2023/06/20 12:37:13;;;;;;;10.07;9.18;;;28.20;99.90;;;;;;4945033;28;20067;-73